KDFI/DFI METAR and TAF weather

Enter ICAO airport designator
Station Type Date Time Source
KDFI METAR 2019/02/23 22:53 UTC NOAA

KDFI 232253Z AUTO 09006KT 1 1/2SM BR OVC005 03/02 A2984 RMK AO2 RAB25E36 SLP111 P0000 T00280017


Station Type Date Time Source
KDFI Decoded METAR 2019/02/23 22:53 UTC NOAA

DEFIANCE MEMORIAL AIRPORT, OH, United States (KDFI) 41-20N 84-26W 219M
Feb 23, 2019 - 05:53 PM EST / 2019.02.23 2253 UTC
Wind: from the E (090 degrees) at 7 MPH (6 KT):0
Visibility: 1 1/2 mile(s):0
Sky conditions: overcast
Weather: mist
Precipitation last hour: A trace
Temperature: 37.0 F (2.8 C)
Dew Point: 35.1 F (1.7 C)
Relative Humidity: 92%
Pressure (altimeter): 29.84 in. Hg (1010 hPa)
ob: KDFI 232253Z AUTO 09006KT 1 1/2SM BR OVC005 03/02 A2984 RMK AO2 RAB25E36 SLP111 P0000 T00280017
cycle: 23

Station Type Date Time Source
KDFI TAF UTC NOAA

Error!


Example: see airport list